Time;durP1;ratioP1;P1;durP2;ratioP2;P2;SDS_P1;SDS_P2;PMS_P1;PMS_P2;Temp;Humidity;BMP_temperature;BMP_pressure;BME280_temperature;BME280_humidity;BME280_pressure;Samples;Min_cycle;Max_cycle;Signal;HPM_P1;HPM_P2
2021/11/26 00:01:35;;;;;;;0.77;0.50;;;;;;;7.27;100.00;99122.38;5133537;27;20521;-58
2021/11/26 00:04:38;;;;;;;0.50;0.45;;;;;;;7.26;100.00;99114.50;5113866;27;20406;-58
2021/11/26 00:07:41;;;;;;;0.65;0.55;;;;;;;7.26;100.00;99092.34;5121823;27;20042;-58
2021/11/26 00:10:44;;;;;;;0.30;0.30;;;;;;;7.22;100.00;99092.53;5132264;27;20083;-59
2021/11/26 00:13:53;;;;;;;1.20;0.73;;;;;;;7.21;100.00;99082.69;5133004;27;20391;-59
2021/11/26 00:16:58;;;;;;;0.20;0.10;;;;;;;7.10;100.00;99067.84;5132565;27;20460;-59
2021/11/26 00:20:01;;;;;;;4.22;0.77;;;;;;;7.19;100.00;99060.25;5133010;27;20051;-58
2021/11/26 00:23:05;;;;;;;0.30;0.30;;;;;;;7.25;100.00;99052.84;5132965;27;20046;-58
2021/11/26 00:26:08;;;;;;;0.10;0.10;;;;;;;7.26;100.00;99043.28;5133186;27;20042;-58
2021/11/26 00:29:11;;;;;;;0.10;0.10;;;;;;;7.33;100.00;99037.38;5116261;28;20038;-58
2021/11/26 00:32:14;;;;;;;1.15;0.77;;;;;;;7.41;100.00;99027.47;5131102;28;20080;-58
2021/11/26 00:35:17;;;;;;;0.65;0.65;;;;;;;7.43;100.00;99005.59;5116674;28;20111;-58
2021/11/26 00:38:21;;;;;;;0.82;0.30;;;;;;;7.44;100.00;99007.13;5133206;28;20147;-58
2021/11/26 00:41:24;;;;;;;0.40;0.40;;;;;;;7.51;100.00;98987.34;5117596;28;20092;-58
2021/11/26 00:44:27;;;;;;;0.10;0.08;;;;;;;7.58;100.00;98975.13;5133522;28;20131;-58
2021/11/26 00:47:30;;;;;;;0.35;0.32;;;;;;;7.64;100.00;98960.13;5133346;28;20038;-58
2021/11/26 00:50:35;;;;;;;0.20;0.20;;;;;;;7.65;100.00;98950.59;5134435;27;20448;-59
2021/11/26 00:53:38;;;;;;;0.55;0.55;;;;;;;7.70;100.00;98927.00;5122978;27;20038;-57
2021/11/26 00:56:41;;;;;;;0.35;0.35;;;;;;;7.61;100.00;98916.78;5136959;27;20079;-58
2021/11/26 00:59:44;;;;;;;0.50;0.25;;;;;;;7.62;100.00;98900.94;5135768;27;20104;-58
2021/11/26 01:02:47;;;;;;;0.10;0.10;;;;;;;7.64;100.00;98888.09;5132306;27;20384;-58
2021/11/26 01:05:50;;;;;;;0.47;0.47;;;;;;;7.69;100.00;98880.38;5123839;27;20041;-58
2021/11/26 01:08:53;;;;;;;13.13;1.23;;;;;;;7.72;100.00;98858.00;5136984;27;20100;-58
2021/11/26 01:11:57;;;;;;;0.25;0.25;;;;;;;7.61;100.00;98847.50;5136409;27;20039;-58
2021/11/26 01:14:59;;;;;;;0.45;0.45;;;;;;;7.67;100.00;98839.28;5136338;27;20550;-58
2021/11/26 01:18:03;;;;;;;0.20;0.20;;;;;;;7.67;100.00;98828.19;5124670;27;20126;-58
2021/11/26 01:21:07;;;;;;;0.10;0.10;;;;;;;7.65;100.00;98820.38;5136547;27;20042;-58
2021/11/26 01:24:10;;;;;;;0.30;0.30;;;;;;;7.74;100.00;98800.09;5136425;27;20042;-59
2021/11/26 01:27:14;;;;;;;0.30;0.30;;;;;;;7.84;100.00;98803.50;5136250;27;20061;-58
2021/11/26 01:30:26;;;;;;;1.17;0.93;;;;;;;7.86;100.00;98795.47;5136265;27;20196;-58
2021/11/26 01:33:30;;;;;;;0.52;0.43;;;;;;;7.92;100.00;98783.22;5128776;27;20442;-58
2021/11/26 01:36:33;;;;;;;0.30;0.30;;;;;;;7.96;100.00;98777.47;5136164;27;20401;-58
2021/11/26 01:39:36;;;;;;;0.10;0.10;;;;;;;7.97;100.00;98770.69;5135985;27;20083;-59
2021/11/26 01:42:40;;;;;;;2.15;1.25;;;;;;;7.89;100.00;98758.47;5135825;27;20069;-58
2021/11/26 01:45:44;;;;;;;0.20;0.20;;;;;;;7.89;100.00;98750.91;5135953;27;20037;-58
2021/11/26 01:48:47;;;;;;;0.10;0.10;;;;;;;7.93;100.00;98734.06;5135819;27;20485;-58
2021/11/26 01:51:50;;;;;;;0.20;0.20;;;;;;;7.94;100.00;98718.97;5136009;27;20035;-59
2021/11/26 01:54:52;;;;;;;0.17;0.17;;;;;;;7.93;100.00;98714.66;5136031;27;20131;-59
2021/11/26 01:57:56;;;;;;;3.75;0.52;;;;;;;7.94;100.00;98708.66;5135231;27;20038;-58
2021/11/26 02:01:02;;;;;;;0.20;0.20;;;;;;;7.94;100.00;98707.88;5135463;27;20549;-59
2021/11/26 02:04:05;;;;;;;0.45;0.45;;;;;;;7.96;100.00;98683.22;5121890;27;20042;-59
2021/11/26 02:07:08;;;;;;;0.30;0.30;;;;;;;8.00;100.00;98684.53;5135916;27;20084;-59
2021/11/26 02:10:11;;;;;;;0.10;0.10;;;;;;;7.99;100.00;98671.16;5135899;27;20089;-59
2021/11/26 02:13:14;;;;;;;0.20;0.20;;;;;;;8.03;100.00;98657.84;5135931;27;20152;-59
2021/11/26 02:16:16;;;;;;;0.40;0.40;;;;;;;7.95;100.00;98638.09;5135609;27;20078;-59
2021/11/26 02:19:24;;;;;;;0.32;0.32;;;;;;;8.02;100.00;98625.81;5135995;27;20095;-59
2021/11/26 02:22:27;;;;;;;0.43;0.43;;;;;;;8.02;100.00;98615.50;5135687;27;20046;-58
2021/11/26 02:25:31;;;;;;;1.88;0.40;;;;;;;8.07;100.00;98598.16;5135324;27;20046;-58
2021/11/26 02:28:34;;;;;;;1.38;0.85;;;;;;;8.11;100.00;98587.63;5135243;27;20403;-59
2021/11/26 02:31:37;;;;;;;0.10;0.10;;;;;;;8.07;100.00;98558.59;5135144;27;20038;-58
2021/11/26 02:34:40;;;;;;;0.30;0.30;;;;;;;8.14;100.00;98542.25;5135302;27;20060;-58
2021/11/26 02:37:43;;;;;;;1.75;0.63;;;;;;;8.11;100.00;98534.16;5135007;27;20050;-58
2021/11/26 02:40:46;;;;;;;0.10;0.10;;;;;;;8.07;100.00;98508.69;5134855;27;20043;-59
2021/11/26 02:43:50;;;;;;;0.10;0.10;;;;;;;8.17;100.00;98496.16;5134328;27;20092;-59
2021/11/26 02:46:52;;;;;;;0.60;0.60;;;;;;;8.19;100.00;98488.88;5135138;27;20111;-59
2021/11/26 02:49:55;;;;;;;0.20;0.20;;;;;;;8.17;100.00;98473.97;5134363;27;20966;-59
2021/11/26 02:52:59;;;;;;;0.65;0.65;;;;;;;8.20;100.00;98464.66;5135094;27;20041;-59
2021/11/26 02:56:03;;;;;;;0.17;0.17;;;;;;;8.21;100.00;98463.41;5134799;27;20050;-59
2021/11/26 02:59:06;;;;;;;0.70;0.70;;;;;;;8.21;100.00;98449.53;5134625;27;20477;-59
2021/11/26 03:02:08;;;;;;;0.57;0.57;;;;;;;8.18;100.00;98431.13;5134448;27;20038;-59
2021/11/26 03:05:12;;;;;;;15.70;0.85;;;;;;;8.20;100.00;98420.31;5134686;27;20092;-59
2021/11/26 03:08:15;;;;;;;0.47;0.32;;;;;;;8.20;100.00;98409.97;5118983;27;20042;-58
2021/11/26 03:11:18;;;;;;;1.98;1.15;;;;;;;8.25;100.00;98408.50;5134559;27;20038;-59
2021/11/26 03:14:21;;;;;;;0.47;0.40;;;;;;;8.28;100.00;98394.41;5122113;27;20046;-58
2021/11/26 03:17:25;;;;;;;0.82;0.68;;;;;;;8.25;100.00;98398.16;5134231;27;20084;-58
2021/11/26 03:20:29;;;;;;;0.47;0.47;;;;;;;8.24;100.00;98370.91;5134793;27;20100;-59
2021/11/26 03:23:32;;;;;;;0.70;0.70;;;;;;;8.26;100.00;98351.78;5134307;27;20046;-58
2021/11/26 03:26:35;;;;;;;0.30;0.30;;;;;;;8.25;100.00;98339.16;5134456;27;20088;-59
2021/11/26 03:29:38;;;;;;;0.30;0.30;;;;;;;8.23;100.00;98322.25;5133872;27;20099;-58
2021/11/26 03:32:41;;;;;;;0.20;0.20;;;;;;;8.21;100.00;98316.44;5134306;27;20128;-59
2021/11/26 03:35:44;;;;;;;0.20;0.20;;;;;;;8.24;100.00;98315.44;5133711;27;20046;-58
2021/11/26 03:38:47;;;;;;;0.47;0.47;;;;;;;8.27;100.00;98303.41;5134295;27;20041;-58
2021/11/26 03:41:50;;;;;;;0.85;0.43;;;;;;;8.29;100.00;98290.53;5133601;27;20042;-58
2021/11/26 03:44:53;;;;;;;1.02;0.38;;;;;;;8.33;100.00;98279.97;5133846;27;20046;-59
2021/11/26 03:47:57;;;;;;;2.78;0.95;;;;;;;8.36;100.00;98272.66;5133395;27;20042;-59
2021/11/26 03:51:00;;;;;;;0.35;0.32;;;;;;;8.44;100.00;98272.94;5134181;27;20037;-59
2021/11/26 03:54:03;;;;;;;0.52;0.40;;;;;;;8.44;100.00;98256.31;5133758;27;20111;-58
2021/11/26 03:57:06;;;;;;;0.52;0.50;;;;;;;8.49;100.00;98242.44;5133984;27;20050;-59
2021/11/26 04:00:10;;;;;;;0.10;0.10;;;;;;;8.46;100.00;98226.81;5133610;27;20087;-58
2021/11/26 04:03:13;;;;;;;0.10;0.10;;;;;;;8.55;100.00;98217.50;5134011;27;20398;-59
2021/11/26 04:06:16;;;;;;;0.30;0.30;;;;;;;8.59;100.00;98201.38;5133503;27;20083;-59
2021/11/26 04:09:19;;;;;;;0.20;0.20;;;;;;;8.57;100.00;98187.25;5132716;27;20046;-59
2021/11/26 04:12:22;;;;;;;0.20;0.20;;;;;;;8.59;100.00;98173.63;5133518;27;20064;-59
2021/11/26 04:15:25;;;;;;;0.20;0.20;;;;;;;8.61;100.00;98160.75;5133337;27;20130;-58
2021/11/26 04:18:29;;;;;;;0.40;0.40;;;;;;;8.65;100.00;98147.38;5133312;27;20554;-58
2021/11/26 04:21:33;;;;;;;0.75;0.65;;;;;;;8.68;100.00;98135.28;5133537;27;20054;-59
2021/11/26 04:24:36;;;;;;;0.25;0.25;;;;;;;8.76;100.00;98111.31;5132843;27;20076;-58
2021/11/26 04:27:39;;;;;;;0.10;0.10;;;;;;;8.81;100.00;98112.56;5133326;28;20057;-58
2021/11/26 04:30:42;;;;;;;0.10;0.10;;;;;;;8.80;100.00;98092.38;5133308;28;20053;-58
2021/11/26 04:33:46;;;;;;;0.60;0.60;;;;;;;8.83;100.00;98080.28;5133409;28;20563;-59
2021/11/26 04:36:49;;;;;;;0.20;0.20;;;;;;;8.84;100.00;98070.69;5119947;28;20037;-59
2021/11/26 04:39:52;;;;;;;1.00;0.50;;;;;;;8.85;100.00;98058.31;5133162;28;20042;-59
2021/11/26 04:42:55;;;;;;;0.40;0.20;;;;;;;8.98;100.00;98047.44;5121433;28;20046;-59
2021/11/26 04:45:58;;;;;;;7.07;0.50;;;;;;;9.03;100.00;98021.66;5132880;28;20062;-59
2021/11/26 04:49:05;;;;;;;0.57;0.30;;;;;;;9.02;100.00;98031.28;5133126;28;20043;-59
2021/11/26 04:52:08;;;;;;;5.28;0.70;;;;;;;9.02;100.00;97999.97;5132851;28;20501;-59
2021/11/26 04:55:13;;;;;;;0.90;0.47;;;;;;;9.03;100.00;97984.84;5133238;28;20452;-59
2021/11/26 04:58:16;;;;;;;0.63;0.28;;;;;;;9.06;100.00;97990.13;5133133;28;20503;-58
2021/11/26 05:01:19;;;;;;;0.10;0.10;;;;;;;9.07;100.00;97974.94;5132962;28;20077;-59
2021/11/26 05:04:22;;;;;;;1.05;0.50;;;;;;;9.08;100.00;97970.16;5132709;28;20165;-59
2021/11/26 05:07:25;;;;;;;0.65;0.65;;;;;;;9.15;100.00;97959.28;5133195;28;20050;-59
2021/11/26 05:10:28;;;;;;;5.22;0.95;;;;;;;9.16;100.00;97941.34;5132664;28;20057;-59
2021/11/26 05:13:33;;;;;;;4.05;1.83;;;;;;;9.11;100.00;97924.72;5132844;28;20509;-59
2021/11/26 05:16:36;;;;;;;11.45;2.75;;;;;;;9.09;100.00;97916.91;5132307;28;20442;-60
2021/11/26 05:19:39;;;;;;;2.65;1.88;;;;;;;9.12;100.00;97915.13;5132732;28;20042;-60
2021/11/26 05:22:42;;;;;;;14.73;2.22;;;;;;;9.10;100.00;97890.66;5116678;28;20035;-60
2021/11/26 05:25:45;;;;;;;1.13;1.08;;;;;;;9.16;100.00;97888.59;5132890;28;20050;-60
2021/11/26 05:28:48;;;;;;;2.17;1.45;;;;;;;9.15;100.00;97853.78;5132713;28;20080;-60
2021/11/26 05:31:51;;;;;;;0.82;0.80;;;;;;;9.13;100.00;97847.97;5133092;28;20407;-60
2021/11/26 05:34:54;;;;;;;1.50;0.75;;;;;;;9.13;100.00;97836.88;5123100;28;20122;-60
2021/11/26 05:37:56;;;;;;;0.22;0.22;;;;;;;9.11;100.00;97814.41;5135952;27;20091;-61
2021/11/26 05:40:59;;;;;;;1.48;0.50;;;;;;;9.14;100.00;97818.94;5136350;27;20042;-60
2021/11/26 05:44:02;;;;;;;0.40;0.40;;;;;;;9.18;100.00;97798.47;5136583;27;20053;-60
2021/11/26 05:47:05;;;;;;;1.95;0.45;;;;;;;9.16;100.00;97794.16;5121811;27;20034;-60
2021/11/26 05:50:13;;;;;;;0.60;0.60;;;;;;;9.22;100.00;97787.84;5136433;27;20043;-61
2021/11/26 05:53:16;;;;;;;0.20;0.20;;;;;;;9.28;100.00;97766.31;5136148;27;20115;-61
2021/11/26 05:56:19;;;;;;;0.30;0.30;;;;;;;9.35;100.00;97762.97;5135993;27;20092;-61
2021/11/26 05:59:22;;;;;;;0.10;0.10;;;;;;;9.38;100.00;97761.94;5123874;27;20072;-61
2021/11/26 06:02:25;;;;;;;4.95;1.05;;;;;;;9.37;100.00;97749.31;5135651;27;20084;-61
2021/11/26 06:05:30;;;;;;;0.13;0.13;;;;;;;9.41;100.00;97747.00;5136199;27;20046;-62
2021/11/26 06:08:32;;;;;;;0.47;0.47;;;;;;;9.50;100.00;97727.22;5135765;27;20073;-62
2021/11/26 06:11:35;;;;;;;0.30;0.30;;;;;;;9.53;100.00;97712.31;5135758;27;20035;-61
2021/11/26 06:14:38;;;;;;;0.60;0.30;;;;;;;9.52;100.00;97699.69;5135382;27;20398;-63
2021/11/26 06:17:42;;;;;;;0.32;0.32;;;;;;;9.52;100.00;97688.56;5135737;27;20073;-63
2021/11/26 06:20:45;;;;;;;0.40;0.40;;;;;;;9.57;100.00;97680.16;5135183;27;20043;-64
2021/11/26 06:23:48;;;;;;;8.70;0.40;;;;;;;9.56;100.00;97642.56;5135175;27;20049;-65
2021/11/26 06:26:51;;;;;;;0.10;0.10;;;;;;;9.62;100.00;97659.16;5134728;27;20070;-65
2021/11/26 06:29:54;;;;;;;0.20;0.20;;;;;;;9.61;100.00;97649.31;5135473;27;20041;-64
2021/11/26 06:32:57;;;;;;;1.90;0.40;;;;;;;9.68;100.00;97648.75;5133537;27;20042;-64
2021/11/26 06:35:59;;;;;;;0.20;0.20;;;;;;;9.68;100.00;97634.84;5134558;27;20534;-64
2021/11/26 06:39:04;;;;;;;0.13;0.13;;;;;;;9.71;100.00;97653.25;5135134;27;20042;-65
2021/11/26 06:42:07;;;;;;;0.20;0.20;;;;;;;9.72;100.00;97649.19;5135323;27;20139;-66
2021/11/26 06:45:11;;;;;;;2.72;0.40;;;;;;;9.73;100.00;97650.69;5135143;27;20073;-65
2021/11/26 06:48:13;;;;;;;7.63;0.32;;;;;;;9.70;100.00;97652.47;5133909;27;20616;-65
2021/11/26 06:51:16;;;;;;;0.40;0.40;;;;;;;9.72;100.00;97649.19;5135193;27;20080;-64
2021/11/26 06:54:19;;;;;;;0.30;0.30;;;;;;;9.69;100.00;97662.09;5134747;27;20081;-62
2021/11/26 06:57:23;;;;;;;0.20;0.20;;;;;;;9.73;100.00;97661.81;5134590;27;20046;-62
2021/11/26 07:00:26;;;;;;;0.10;0.10;;;;;;;9.70;100.00;97671.22;5134531;27;20072;-62
2021/11/26 07:03:29;;;;;;;0.20;0.20;;;;;;;9.62;100.00;97671.03;5134207;27;20072;-60
2021/11/26 07:06:33;;;;;;;0.63;0.47;;;;;;;9.54;100.00;97649.91;5129156;27;20174;-62
2021/11/26 07:09:36;;;;;;;0.38;0.30;;;;;;;9.49;100.00;97645.16;5120137;27;20110;-62
2021/11/26 07:12:41;;;;;;;0.25;0.25;;;;;;;9.48;100.00;97641.63;5134270;27;20126;-60
2021/11/26 07:15:44;;;;;;;0.10;0.10;;;;;;;9.59;100.00;97624.09;5114316;28;20043;-62
2021/11/26 07:18:48;;;;;;;0.10;0.10;;;;;;;9.60;100.00;97608.91;5130430;28;20038;-62
2021/11/26 07:21:52;;;;;;;0.43;0.43;;;;;;;9.62;100.00;97600.78;5123746;28;20078;-63
2021/11/26 07:24:55;;;;;;;0.10;0.10;;;;;;;9.57;100.00;97602.38;5130908;28;20050;-62
2021/11/26 07:27:57;;;;;;;0.10;0.10;;;;;;;9.58;100.00;97594.78;5121452;28;20046;-62
2021/11/26 07:31:01;;;;;;;0.10;0.10;;;;;;;9.58;100.00;97600.34;5132265;28;20034;-63
2021/11/26 07:34:03;;;;;;;0.20;0.20;;;;;;;9.59;100.00;97596.31;5132946;28;20046;-62
2021/11/26 07:37:12;;;;;;;0.20;0.20;;;;;;;9.63;100.00;97602.31;5132439;28;20503;-62
2021/11/26 07:40:15;;;;;;;0.57;0.57;;;;;;;9.68;100.00;97593.16;5133104;28;20088;-61
2021/11/26 07:43:21;;;;;;;16.05;2.10;;;;;;;9.74;100.00;97585.50;5132526;28;20510;-61
2021/11/26 07:46:25;;;;;;;4.55;1.23;;;;;;;9.81;100.00;97568.22;5133990;28;20060;-62
2021/11/26 07:49:28;;;;;;;9.38;2.17;;;;;;;9.83;100.00;97568.47;5132799;28;20095;-62
2021/11/26 07:52:32;;;;;;;7.03;1.48;;;;;;;9.87;100.00;97574.47;5133151;28;20050;-62
2021/11/26 07:55:35;;;;;;;0.40;0.40;;;;;;;9.85;100.00;97585.34;5133170;28;20407;-62
2021/11/26 07:58:38;;;;;;;6.88;0.73;;;;;;;9.88;100.00;97575.94;5132770;28;20046;-62
2021/11/26 08:01:41;;;;;;;1.95;1.45;;;;;;;9.95;100.00;97578.13;5132548;28;20068;-61
2021/11/26 08:04:44;;;;;;;0.20;0.20;;;;;;;9.99;100.00;97586.16;5132671;28;20058;-61
2021/11/26 08:07:47;;;;;;;1.10;0.65;;;;;;;10.01;100.00;97598.28;5116939;28;20037;-60
2021/11/26 08:10:50;;;;;;;0.30;0.30;;;;;;;10.03;100.00;97594.97;5132323;28;20452;-61
2021/11/26 08:13:55;;;;;;;0.15;0.15;;;;;;;10.03;100.00;97575.50;5116973;28;20069;-61
2021/11/26 08:16:58;;;;;;;0.57;0.20;;;;;;;10.06;100.00;97566.84;5092328;27;1158764;-62
2021/11/26 08:20:04;;;;;;;1.95;0.43;;;;;;;10.05;100.00;97565.34;5134276;27;20131;-62
2021/11/26 08:23:08;;;;;;;2.10;0.40;;;;;;;10.03;100.00;97551.22;5133379;27;20135;-62
2021/11/26 08:26:11;;;;;;;0.52;0.20;;;;;;;10.05;100.00;97559.06;5134334;27;20115;-54
2021/11/26 08:29:14;;;;;;;0.55;0.55;;;;;;;9.99;100.00;97561.13;5133249;27;20046;-54
2021/11/26 08:32:17;;;;;;;12.93;0.52;;;;;;;9.94;100.00;97571.06;5119597;28;20038;-55
2021/11/26 08:35:22;;;;;;;1.05;0.45;;;;;;;9.89;100.00;97569.88;5130089;28;20080;-54
2021/11/26 08:38:27;;;;;;;1.55;0.70;;;;;;;9.89;100.00;97569.13;5121570;28;20423;-54
2021/11/26 08:41:30;;;;;;;0.20;0.20;;;;;;;9.85;100.00;97574.25;5132937;28;20070;-63
2021/11/26 08:44:33;;;;;;;0.20;0.20;;;;;;;9.86;100.00;97581.28;5132783;28;20038;-62
2021/11/26 08:47:36;;;;;;;0.63;0.63;;;;;;;9.90;100.00;97573.41;5133499;28;20074;-54
2021/11/26 08:50:39;;;;;;;0.20;0.20;;;;;;;9.70;100.00;97585.06;5133262;28;20043;-54
2021/11/26 08:53:45;;;;;;;0.98;0.47;;;;;;;9.70;100.00;97580.22;5132907;28;20087;-54
2021/11/26 08:56:50;;;;;;;1.00;0.65;;;;;;;9.59;100.00;97563.72;5133880;28;20050;-53
2021/11/26 08:59:53;;;;;;;7.10;0.30;;;;;;;9.39;100.00;97566.22;5132374;28;20061;-53
2021/11/26 09:02:59;;;;;;;1.23;0.63;;;;;;;9.48;100.00;97574.97;5134102;28;20131;-61
2021/11/26 09:06:04;;;;;;;0.20;0.20;;;;;;;9.60;100.00;97556.09;5116506;28;20530;-61
2021/11/26 09:09:07;;;;;;;0.30;0.30;;;;;;;9.29;100.00;97567.88;5133019;28;20077;-61
2021/11/26 09:12:14;;;;;;;1.13;1.10;;;;;;;9.68;100.00;97551.47;5113250;27;20564;-61
2021/11/26 09:15:17;;;;;;;0.52;0.38;;;;;;;9.08;100.00;97560.00;5120740;27;20058;-60
2021/11/26 09:18:22;;;;;;;3.05;0.32;;;;;;;8.93;100.00;97559.66;5120881;27;20038;-61
2021/11/26 09:21:25;;;;;;;0.93;0.20;;;;;;;9.60;100.00;97533.88;5135812;27;20054;-60
2021/11/26 09:24:27;;;;;;;0.10;0.10;;;;;;;9.64;100.00;97531.53;5122640;27;20045;-55
2021/11/26 09:27:31;;;;;;;0.20;0.20;;;;;;;9.61;100.00;97524.28;5119513;27;20039;-55
2021/11/26 09:30:34;;;;;;;0.22;0.17;;;;;;;9.79;100.00;97513.16;5132686;27;20532;-55
2021/11/26 09:33:38;;;;;;;0.32;0.32;;;;;;;10.02;100.00;97521.94;5133810;27;20038;-55
2021/11/26 09:36:40;;;;;;;0.13;0.13;;;;;;;10.08;100.00;97525.38;5134012;27;20087;-55
2021/11/26 09:39:44;;;;;;;1.55;0.60;;;;;;;10.04;100.00;97519.38;5133659;27;20050;-55
2021/11/26 09:42:48;;;;;;;1.85;0.47;;;;;;;10.15;100.00;97508.09;5123113;27;20149;-55
2021/11/26 09:45:51;;;;;;;0.15;0.15;;;;;;;10.17;100.00;97511.09;5135545;27;20053;-55
2021/11/26 09:48:54;;;;;;;11.10;0.90;;;;;;;10.19;100.00;97496.66;5136193;27;20111;-55
2021/11/26 09:51:57;;;;;;;0.52;0.52;;;;;;;10.10;100.00;97497.78;5135452;27;20398;-55
2021/11/26 09:55:00;;;;;;;0.73;0.52;;;;;;;10.13;100.00;97493.22;5135720;27;20050;-55
2021/11/26 09:58:04;;;;;;;1.10;0.70;;;;;;;10.20;100.00;97493.34;5119382;27;20045;-55
2021/11/26 10:01:10;;;;;;;0.30;0.30;;;;;;;10.30;100.00;97475.00;5135760;27;20418;-54
2021/11/26 10:04:20;;;;;;;0.15;0.15;;;;;;;10.48;100.00;97473.44;5135759;27;20061;-55
2021/11/26 10:07:24;;;;;;;0.65;0.65;;;;;;;10.58;100.00;97480.06;5135962;27;20042;-55
2021/11/26 10:10:35;;;;;;;3.92;1.48;;;;;;;10.46;100.00;97476.72;5135794;27;20078;-55
2021/11/26 10:13:38;;;;;;;0.30;0.30;;;;;;;10.43;100.00;97472.22;5135800;27;20480;-55
2021/11/26 10:16:47;;;;;;;4.25;1.23;;;;;;;10.40;100.00;97467.72;5135375;27;20066;-54
2021/11/26 10:19:58;;;;;;;6.13;0.50;;;;;;;10.31;100.00;97459.78;5135719;27;20042;-54
2021/11/26 10:23:05;;;;;;;1.60;0.60;;;;;;;10.17;100.00;97463.81;5135494;27;20167;-55
2021/11/26 10:26:19;;;;;;;0.10;0.10;;;;;;;9.99;100.00;97459.03;5134683;27;20312;-55
2021/11/26 10:29:34;;;;;;;0.25;0.25;;;;;;;9.95;100.00;97455.81;5135525;27;20042;-55
2021/11/26 10:32:37;;;;;;;0.20;0.20;;;;;;;9.99;100.00;97452.72;5134133;27;20389;-55
2021/11/26 10:36:00;;;;;;;0.10;0.10;;;;;;;10.16;100.00;97453.97;5134483;27;20049;-54
2021/11/26 10:39:10;;;;;;;0.45;0.45;;;;;;;10.24;100.00;97440.97;5134004;27;20042;-54
2021/11/26 10:42:25;;;;;;;0.30;0.30;;;;;;;10.09;100.00;97468.47;5134500;27;20108;-54
2021/11/26 10:45:41;;;;;;;1.48;0.20;;;;;;;9.98;100.00;97460.31;5134882;27;20068;-56
2021/11/26 11:01:45;;;;;;;0.10;0.10;;;;;;;9.66;100.00;97440.06;5132761;27;20391;-56
2021/11/26 11:04:49;;;;;;;0.85;0.65;;;;;;;9.58;100.00;97433.63;5116794;27;20493;-56
2021/11/26 11:07:52;;;;;;;4.03;0.52;;;;;;;9.60;100.00;97433.84;5134208;27;20756;-56
2021/11/26 11:10:56;;;;;;;0.10;0.10;;;;;;;9.51;100.00;97417.56;5118544;27;20042;-55
2021/11/26 11:14:01;;;;;;;0.40;0.40;;;;;;;9.64;100.00;97417.63;5134757;27;20382;-55
2021/11/26 11:17:05;;;;;;;0.15;0.15;;;;;;;9.67;100.00;97425.66;5133689;27;20524;-55
2021/11/26 11:20:11;;;;;;;0.75;0.20;;;;;;;9.48;100.00;97418.63;5133318;27;20605;-55
2021/11/26 11:23:15;;;;;;;1.55;0.57;;;;;;;9.69;100.00;97417.56;5134143;27;20088;-56
2021/11/26 11:26:17;;;;;;;0.10;0.10;;;;;;;9.70;100.00;97396.06;5134377;27;20456;-55
2021/11/26 11:29:24;;;;;;;0.20;0.20;;;;;;;9.86;100.00;97403.38;5133866;27;20042;-55
2021/11/26 11:32:27;;;;;;;0.35;0.35;;;;;;;9.84;100.00;97398.34;5133962;27;20523;-55
2021/11/26 11:35:32;;;;;;;13.95;0.55;;;;;;;9.86;100.00;97383.91;5121277;27;20053;-55
2021/11/26 11:38:35;;;;;;;0.30;0.30;;;;;;;9.87;100.00;97394.50;5133996;27;20126;-56
2021/11/26 11:41:50;;;;;;;1.05;0.95;;;;;;;9.90;100.00;97376.00;5134233;27;20088;-55
2021/11/26 11:45:15;;;;;;;5.20;0.63;;;;;;;9.90;100.00;97385.13;5133554;27;20046;-55
2021/11/26 11:48:29;;;;;;;0.73;0.20;;;;;;;9.79;100.00;97381.75;5133422;27;20092;-55
2021/11/26 11:51:33;;;;;;;1.08;0.47;;;;;;;9.74;100.00;97371.50;5132832;27;20429;-55
2021/11/26 11:54:41;;;;;;;0.30;0.30;;;;;;;9.75;100.00;97370.97;5133500;27;20498;-55
2021/11/26 11:57:44;;;;;;;15.35;1.25;;;;;;;9.72;100.00;97354.59;5122323;27;20091;-55
2021/11/26 12:00:53;;;;;;;4.68;0.95;;;;;;;9.67;100.00;97352.66;5133193;27;20551;-55
2021/11/26 12:03:59;;;;;;;4.32;0.63;;;;;;;9.69;100.00;97361.22;5133263;27;20470;-55
2021/11/26 12:07:02;;;;;;;0.20;0.20;;;;;;;9.76;100.00;97366.16;5133375;27;20516;-55
2021/11/26 12:10:08;;;;;;;1.17;0.30;;;;;;;9.75;100.00;97359.09;5133408;27;20073;-54
2021/11/26 12:13:21;;;;;;;0.20;0.20;;;;;;;9.81;100.00;97360.50;5133395;27;20054;-54
2021/11/26 12:16:25;;;;;;;0.30;0.30;;;;;;;9.83;100.00;97359.97;5132981;27;20061;-54
2021/11/26 12:19:27;;;;;;;1.23;0.70;;;;;;;9.92;100.00;97354.00;5133185;27;20046;-54
2021/11/26 12:22:45;;;;;;;0.47;0.30;;;;;;;9.92;100.00;97351.22;5127547;27;20049;-54
2021/11/26 12:26:17;;;;;;;0.10;0.10;;;;;;;9.80;100.00;97347.13;5133264;27;20145;-54
2021/11/26 12:29:35;;;;;;;0.20;0.20;;;;;;;9.69;100.00;97347.31;5133119;27;20087;-54
2021/11/26 12:32:38;;;;;;;11.13;0.88;;;;;;;9.59;100.00;97346.22;5133281;28;20034;-54
2021/11/26 12:35:41;;;;;;;0.90;0.55;;;;;;;9.46;100.00;97343.41;5132684;28;20050;-54
2021/11/26 12:38:46;;;;;;;0.22;0.22;;;;;;;9.35;100.00;97355.44;5133484;28;20049;-54
2021/11/26 12:41:53;;;;;;;0.20;0.20;;;;;;;9.31;100.00;97359.81;5119810;28;20038;-54
2021/11/26 12:44:59;;;;;;;0.15;0.15;;;;;;;9.31;100.00;97360.56;5132986;28;20046;-54
2021/11/26 12:48:10;;;;;;;1.85;0.47;;;;;;;9.40;100.00;97362.91;5125062;27;20038;-54
2021/11/26 12:51:12;;;;;;;0.10;0.10;;;;;;;9.46;100.00;97360.84;5124402;27;20064;-54
2021/11/26 12:54:35;;;;;;;0.20;0.20;;;;;;;9.70;100.00;97357.16;5106929;27;20047;-54
2021/11/26 12:57:38;;;;;;;0.95;0.22;;;;;;;9.93;100.00;97374.97;5094850;27;20031;-54
2021/11/26 13:00:55;;;;;;;0.47;0.25;;;;;;;10.07;100.00;97362.56;5100512;27;20034;-54
2021/11/26 13:03:59;;;;;;;1.63;0.32;;;;;;;10.00;100.00;97360.44;5101298;27;20579;-54
2021/11/26 13:07:05;;;;;;;0.20;0.20;;;;;;;10.05;100.00;97364.41;5116522;27;20306;-54
2021/11/26 13:10:09;;;;;;;1.95;0.35;;;;;;;10.07;100.00;97359.78;5103647;27;20126;-54
2021/11/26 13:13:14;;;;;;;1.20;0.60;;;;;;;10.12;100.00;97358.97;5115799;27;20035;-54
2021/11/26 13:16:18;;;;;;;1.27;0.30;;;;;;;10.23;100.00;97363.59;5115697;27;20434;-54
2021/11/26 13:19:23;;;;;;;5.78;0.50;;;;;;;10.22;100.00;97365.63;5115256;27;20091;-54
2021/11/26 13:22:25;;;;;;;0.40;0.25;;;;;;;10.20;100.00;97362.63;5113329;27;20852;-53
2021/11/26 13:25:35;;;;;;;0.50;0.50;;;;;;;10.17;100.00;97366.47;5112511;27;20050;-54
2021/11/26 13:28:43;;;;;;;0.20;0.20;;;;;;;10.09;100.00;97360.00;5112702;27;20401;-53
2021/11/26 13:31:47;;;;;;;1.98;1.10;;;;;;;10.10;100.00;97378.19;5099931;27;20095;-53
2021/11/26 13:34:56;;;;;;;0.20;0.17;;;;;;;10.02;100.00;97357.88;5112566;27;20260;-53
2021/11/26 13:38:02;;;;;;;0.28;0.28;;;;;;;10.04;100.00;97363.66;5104852;27;20045;-53
2021/11/26 13:41:14;;;;;;;1.85;0.60;;;;;;;10.07;100.00;97368.13;5135146;27;20069;-53
2021/11/26 13:44:24;;;;;;;0.30;0.30;;;;;;;10.11;100.00;97379.75;5123407;27;20070;-53
2021/11/26 13:47:27;;;;;;;1.05;0.43;;;;;;;10.02;100.00;97360.66;5135195;27;20061;-53
2021/11/26 13:50:38;;;;;;;0.52;0.40;;;;;;;9.88;100.00;97361.91;5135466;27;20046;-53
2021/11/26 13:53:43;;;;;;;2.95;0.43;;;;;;;9.84;100.00;97358.69;5135502;27;20129;-53
2021/11/26 13:56:50;;;;;;;0.20;0.20;;;;;;;9.87;100.00;97368.75;5135545;27;20437;-53
2021/11/26 14:00:20;;;;;;;0.10;0.10;;;;;;;9.80;100.00;97333.25;5136412;27;20060;-59
2021/11/26 14:03:39;;;;;;;0.10;0.10;;;;;;;9.74;100.00;97332.59;5132013;27;20054;-61
2021/11/26 14:07:13;;;;;;;0.40;0.17;;;;;;;9.63;100.00;97335.56;5127444;27;20046;-61
2021/11/26 14:10:16;;;;;;;0.32;0.32;;;;;;;9.49;100.00;97340.31;5135621;27;20543;-61
2021/11/26 14:13:21;;;;;;;0.30;0.30;;;;;;;9.42;100.00;97334.63;5135647;27;20056;-54
2021/11/26 14:16:26;;;;;;;0.38;0.38;;;;;;;9.39;100.00;97332.91;5121233;27;20521;-53
2021/11/26 14:19:43;;;;;;;1.65;1.00;;;;;;;9.36;100.00;97333.94;5135551;27;20547;-54
2021/11/26 14:22:48;;;;;;;0.20;0.20;;;;;;;9.27;100.00;97331.59;5136050;27;20050;-55
2021/11/26 14:25:55;;;;;;;0.20;0.20;;;;;;;8.93;100.00;97326.50;5134948;27;20073;-57
2021/11/26 14:29:15;;;;;;;0.30;0.10;;;;;;;8.85;100.00;97335.97;5136299;27;20524;-54
2021/11/26 14:32:18;;;;;;;0.30;0.30;;;;;;;8.93;100.00;97332.06;5126712;27;20467;-54
2021/11/26 14:35:25;;;;;;;1.17;0.40;;;;;;;8.83;100.00;97333.72;5132639;27;20042;-60
2021/11/26 14:38:29;;;;;;;2.05;0.47;;;;;;;8.86;100.00;97348.53;5106963;27;20035;-59
2021/11/26 14:41:36;;;;;;;21.40;0.50;;;;;;;8.88;100.00;97338.44;5105372;27;21229;-60